sensor_id;sensor_type;location;lat;lon;timestamp;temperature;humidity
11043;DHT22;5574;48.786;10.120;2023-02-11T00:00:41;-1.30;97.50
11043;DHT22;5574;48.786;10.120;2023-02-11T00:03:08;-1.30;97.40
11043;DHT22;5574;48.786;10.120;2023-02-11T00:05:34;-1.20;97.70
11043;DHT22;5574;48.786;10.120;2023-02-11T00:08:01;-1.20;97.80
11043;DHT22;5574;48.786;10.120;2023-02-11T00:10:29;-1.20;97.60
11043;DHT22;5574;48.786;10.120;2023-02-11T00:12:56;-1.20;97.40
11043;DHT22;5574;48.786;10.120;2023-02-11T00:15:22;-1.20;97.30
11043;DHT22;5574;48.786;10.120;2023-02-11T00:17:49;-1.20;97.40
11043;DHT22;5574;48.786;10.120;2023-02-11T00:20:16;-1.20;97.20
11043;DHT22;5574;48.786;10.120;2023-02-11T00:22:43;-1.30;97.20
11043;DHT22;5574;48.786;10.120;2023-02-11T00:25:10;-1.40;97.40
11043;DHT22;5574;48.786;10.120;2023-02-11T00:27:38;-1.50;97.40
11043;DHT22;5574;48.786;10.120;2023-02-11T00:30:05;-1.50;97.40
11043;DHT22;5574;48.786;10.120;2023-02-11T00:32:32;-1.50;97.40
11043;DHT22;5574;48.786;10.120;2023-02-11T00:34:59;-1.50;97.50
11043;DHT22;5574;48.786;10.120;2023-02-11T00:37:25;-1.50;97.60
11043;DHT22;5574;48.786;10.120;2023-02-11T00:39:52;-1.50;97.60
11043;DHT22;5574;48.786;10.120;2023-02-11T00:42:19;-1.60;98.10
11043;DHT22;5574;48.786;10.120;2023-02-11T00:44:47;-1.50;98.00
11043;DHT22;5574;48.786;10.120;2023-02-11T00:47:14;-1.60;97.90
11043;DHT22;5574;48.786;10.120;2023-02-11T00:49:40;-1.60;97.80
11043;DHT22;5574;48.786;10.120;2023-02-11T00:52:07;-1.50;97.90
11043;DHT22;5574;48.786;10.120;2023-02-11T00:54:34;-1.60;97.70
11043;DHT22;5574;48.786;10.120;2023-02-11T00:57:00;-1.60;97.60
11043;DHT22;5574;48.786;10.120;2023-02-11T00:59:27;-1.70;97.50
11043;DHT22;5574;48.786;10.120;2023-02-11T01:01:55;-1.70;97.50
11043;DHT22;5574;48.786;10.120;2023-02-11T01:04:22;-1.70;97.60
11043;DHT22;5574;48.786;10.120;2023-02-11T01:06:48;-1.80;97.60
11043;DHT22;5574;48.786;10.120;2023-02-11T01:09:15;-1.80;97.60
11043;DHT22;5574;48.786;10.120;2023-02-11T01:11:42;-1.80;97.70
11043;DHT22;5574;48.786;10.120;2023-02-11T01:14:09;-1.80;97.60
11043;DHT22;5574;48.786;10.120;2023-02-11T01:16:35;-1.80;97.50
11043;DHT22;5574;48.786;10.120;2023-02-11T01:19:04;-1.80;97.70
11043;DHT22;5574;48.786;10.120;2023-02-11T01:21:30;-1.80;97.70
11043;DHT22;5574;48.786;10.120;2023-02-11T01:23:57;-1.80;97.70
11043;DHT22;5574;48.786;10.120;2023-02-11T01:26:24;-1.90;97.80
11043;DHT22;5574;48.786;10.120;2023-02-11T01:28:51;-1.90;98.00
11043;DHT22;5574;48.786;10.120;2023-02-11T01:31:17;-2.00;97.90
11043;DHT22;5574;48.786;10.120;2023-02-11T01:33:44;-2.00;97.80
11043;DHT22;5574;48.786;10.120;2023-02-11T01:36:12;-2.00;97.80
11043;DHT22;5574;48.786;10.120;2023-02-11T01:38:39;-2.00;98.10
11043;DHT22;5574;48.786;10.120;2023-02-11T01:41:08;-2.00;98.10
11043;DHT22;5574;48.786;10.120;2023-02-11T01:43:36;-2.00;98.00
11043;DHT22;5574;48.786;10.120;2023-02-11T01:46:13;-2.10;97.90
11043;DHT22;5574;48.786;10.120;2023-02-11T01:48:44;-2.10;98.00
11043;DHT22;5574;48.786;10.120;2023-02-11T01:51:17;-2.10;98.10
11043;DHT22;5574;48.786;10.120;2023-02-11T01:53:47;-2.00;98.30
11043;DHT22;5574;48.786;10.120;2023-02-11T01:56:32;-2.00;98.30
11043;DHT22;5574;48.786;10.120;2023-02-11T01:59:20;-2.00;98.30
11043;DHT22;5574;48.786;10.120;2023-02-11T02:01:54;-2.10;98.20
11043;DHT22;5574;48.786;10.120;2023-02-11T02:04:22;-2.10;98.40
11043;DHT22;5574;48.786;10.120;2023-02-11T02:06:58;-2.20;98.40
11043;DHT22;5574;48.786;10.120;2023-02-11T02:09:27;-2.20;98.60
11043;DHT22;5574;48.786;10.120;2023-02-11T02:11:55;-2.30;98.80
11043;DHT22;5574;48.786;10.120;2023-02-11T02:14:21;-2.20;99.10
11043;DHT22;5574;48.786;10.120;2023-02-11T02:16:48;-2.20;98.90
11043;DHT22;5574;48.786;10.120;2023-02-11T02:25:31;-2.20;98.80
11043;DHT22;5574;48.786;10.120;2023-02-11T02:28:12;-2.20;98.70
11043;DHT22;5574;48.786;10.120;2023-02-11T02:30:52;-2.10;98.60
11043;DHT22;5574;48.786;10.120;2023-02-11T02:33:41;-2.10;98.60
11043;DHT22;5574;48.786;10.120;2023-02-11T02:36:14;-2.10;98.50
11043;DHT22;5574;48.786;10.120;2023-02-11T02:38:47;-2.10;98.70
11043;DHT22;5574;48.786;10.120;2023-02-11T02:41:19;-2.10;98.80
11043;DHT22;5574;48.786;10.120;2023-02-11T02:43:48;-2.00;98.80
11043;DHT22;5574;48.786;10.120;2023-02-11T02:46:17;-2.00;98.80
11043;DHT22;5574;48.786;10.120;2023-02-11T02:48:46;-2.00;98.80
11043;DHT22;5574;48.786;10.120;2023-02-11T02:51:30;-2.00;98.80
11043;DHT22;5574;48.786;10.120;2023-02-11T02:57:08;-2.10;98.80
11043;DHT22;5574;48.786;10.120;2023-02-11T02:59:49;-2.10;98.80
11043;DHT22;5574;48.786;10.120;2023-02-11T03:02:23;-2.10;99.00
11043;DHT22;5574;48.786;10.120;2023-02-11T03:04:57;-2.10;99.00
11043;DHT22;5574;48.786;10.120;2023-02-11T03:07:34;-2.20;99.10
11043;DHT22;5574;48.786;10.120;2023-02-11T03:10:07;-2.20;99.30
11043;DHT22;5574;48.786;10.120;2023-02-11T03:12:35;-2.20;99.40
11043;DHT22;5574;48.786;10.120;2023-02-11T03:15:05;-2.20;99.50
11043;DHT22;5574;48.786;10.120;2023-02-11T03:17:33;-2.20;99.70
11043;DHT22;5574;48.786;10.120;2023-02-11T03:20:04;-2.20;99.80
11043;DHT22;5574;48.786;10.120;2023-02-11T03:22:34;-2.20;99.90
11043;DHT22;5574;48.786;10.120;2023-02-11T03:25:03;-2.10;99.90
11043;DHT22;5574;48.786;10.120;2023-02-11T03:27:38;-2.00;99.90
11043;DHT22;5574;48.786;10.120;2023-02-11T03:30:11;-1.90;99.90
11043;DHT22;5574;48.786;10.120;2023-02-11T03:32:40;-1.90;99.80
11043;DHT22;5574;48.786;10.120;2023-02-11T03:35:15;-1.80;99.50
11043;DHT22;5574;48.786;10.120;2023-02-11T03:37:51;-1.80;99.50
11043;DHT22;5574;48.786;10.120;2023-02-11T03:40:21;-1.80;99.70
11043;DHT22;5574;48.786;10.120;2023-02-11T03:42:53;-1.70;99.80
11043;DHT22;5574;48.786;10.120;2023-02-11T03:45:23;-1.80;99.60
11043;DHT22;5574;48.786;10.120;2023-02-11T03:47:54;-1.70;99.90
11043;DHT22;5574;48.786;10.120;2023-02-11T03:50:25;-1.70;99.80
11043;DHT22;5574;48.786;10.120;2023-02-11T03:52:54;-1.60;99.80
11043;DHT22;5574;48.786;10.120;2023-02-11T03:55:22;-1.60;99.80
11043;DHT22;5574;48.786;10.120;2023-02-11T03:57:51;-1.60;99.70
11043;DHT22;5574;48.786;10.120;2023-02-11T04:00:18;-1.60;99.80
11043;DHT22;5574;48.786;10.120;2023-02-11T04:02:45;-1.70;99.90
11043;DHT22;5574;48.786;10.120;2023-02-11T04:05:14;-1.70;99.70
11043;DHT22;5574;48.786;10.120;2023-02-11T04:07:42;-1.60;99.80
11043;DHT22;5574;48.786;10.120;2023-02-11T04:10:10;-1.60;99.80
11043;DHT22;5574;48.786;10.120;2023-02-11T04:12:37;-1.60;99.90
11043;DHT22;5574;48.786;10.120;2023-02-11T04:15:05;-1.60;99.60
11043;DHT22;5574;48.786;10.120;2023-02-11T04:17:31;-1.60;99.60
11043;DHT22;5574;48.786;10.120;2023-02-11T04:19:58;-1.60;99.90
11043;DHT22;5574;48.786;10.120;2023-02-11T04:22:25;-1.60;99.90
11043;DHT22;5574;48.786;10.120;2023-02-11T04:24:53;-1.60;99.90
11043;DHT22;5574;48.786;10.120;2023-02-11T04:27:19;-1.60;99.90
11043;DHT22;5574;48.786;10.120;2023-02-11T04:29:46;-1.50;99.90
11043;DHT22;5574;48.786;10.120;2023-02-11T04:32:13;-1.50;99.90
11043;DHT22;5574;48.786;10.120;2023-02-11T04:34:40;-1.40;99.90
11043;DHT22;5574;48.786;10.120;2023-02-11T04:37:07;-1.50;99.90
11043;DHT22;5574;48.786;10.120;2023-02-11T04:39:34;-1.50;99.90
11043;DHT22;5574;48.786;10.120;2023-02-11T04:42:02;-1.40;99.90
11043;DHT22;5574;48.786;10.120;2023-02-11T04:44:29;-1.40;99.90
11043;DHT22;5574;48.786;10.120;2023-02-11T04:46:56;-1.40;99.90
11043;DHT22;5574;48.786;10.120;2023-02-11T04:49:23;-1.40;99.90
11043;DHT22;5574;48.786;10.120;2023-02-11T04:51:50;-1.40;99.90
11043;DHT22;5574;48.786;10.120;2023-02-11T04:54:17;-1.40;99.90
11043;DHT22;5574;48.786;10.120;2023-02-11T04:56:44;-1.40;99.90
11043;DHT22;5574;48.786;10.120;2023-02-11T04:59:12;-1.40;99.90
11043;DHT22;5574;48.786;10.120;2023-02-11T05:01:39;-1.30;99.90
11043;DHT22;5574;48.786;10.120;2023-02-11T05:04:06;-1.40;99.90
11043;DHT22;5574;48.786;10.120;2023-02-11T05:06:33;-1.40;99.90
11043;DHT22;5574;48.786;10.120;2023-02-11T05:08:59;-1.40;99.90
11043;DHT22;5574;48.786;10.120;2023-02-11T05:11:26;-1.40;99.90
11043;DHT22;5574;48.786;10.120;2023-02-11T05:13:53;-1.40;99.90
11043;DHT22;5574;48.786;10.120;2023-02-11T05:16:21;-1.30;99.90
11043;DHT22;5574;48.786;10.120;2023-02-11T05:18:47;-1.30;99.90
11043;DHT22;5574;48.786;10.120;2023-02-11T05:21:17;-1.30;99.90
11043;DHT22;5574;48.786;10.120;2023-02-11T05:23:44;-1.30;99.90
11043;DHT22;5574;48.786;10.120;2023-02-11T05:26:12;-1.30;99.90
11043;DHT22;5574;48.786;10.120;2023-02-11T05:28:39;-1.30;99.90
11043;DHT22;5574;48.786;10.120;2023-02-11T05:31:06;-1.30;99.90
11043;DHT22;5574;48.786;10.120;2023-02-11T05:33:35;-1.30;99.90
11043;DHT22;5574;48.786;10.120;2023-02-11T05:36:04;-1.40;99.90
11043;DHT22;5574;48.786;10.120;2023-02-11T05:38:31;-1.40;99.90
11043;DHT22;5574;48.786;10.120;2023-02-11T05:40:59;-1.40;99.90
11043;DHT22;5574;48.786;10.120;2023-02-11T05:43:25;-1.40;99.90
11043;DHT22;5574;48.786;10.120;2023-02-11T05:45:52;-1.40;99.90
11043;DHT22;5574;48.786;10.120;2023-02-11T05:48:19;-1.40;99.90
11043;DHT22;5574;48.786;10.120;2023-02-11T05:50:47;-1.30;99.90
11043;DHT22;5574;48.786;10.120;2023-02-11T05:53:14;-1.30;99.90
11043;DHT22;5574;48.786;10.120;2023-02-11T05:55:41;-1.20;99.90
11043;DHT22;5574;48.786;10.120;2023-02-11T05:58:07;-1.20;99.90
11043;DHT22;5574;48.786;10.120;2023-02-11T06:00:34;-1.20;99.90
11043;DHT22;5574;48.786;10.120;2023-02-11T06:03:01;-1.10;99.90
11043;DHT22;5574;48.786;10.120;2023-02-11T06:05:29;-1.10;99.90
11043;DHT22;5574;48.786;10.120;2023-02-11T06:07:57;-1.10;99.90
11043;DHT22;5574;48.786;10.120;2023-02-11T06:10:24;-1.10;99.90
11043;DHT22;5574;48.786;10.120;2023-02-11T06:12:51;-1.00;99.90
11043;DHT22;5574;48.786;10.120;2023-02-11T06:15:18;-1.00;99.90
11043;DHT22;5574;48.786;10.120;2023-02-11T06:17:44;-1.00;99.90
11043;DHT22;5574;48.786;10.120;2023-02-11T06:20:11;-1.00;99.90
11043;DHT22;5574;48.786;10.120;2023-02-11T06:22:38;-1.00;99.90
11043;DHT22;5574;48.786;10.120;2023-02-11T06:25:06;-1.00;99.90
11043;DHT22;5574;48.786;10.120;2023-02-11T06:27:33;-1.00;99.90
11043;DHT22;5574;48.786;10.120;2023-02-11T06:29:59;-1.00;99.90
11043;DHT22;5574;48.786;10.120;2023-02-11T06:32:26;-0.90;99.90
11043;DHT22;5574;48.786;10.120;2023-02-11T06:34:53;-0.90;99.90
11043;DHT22;5574;48.786;10.120;2023-02-11T06:37:20;-0.90;99.90
11043;DHT22;5574;48.786;10.120;2023-02-11T06:39:47;-0.90;99.90
11043;DHT22;5574;48.786;10.120;2023-02-11T06:42:15;-0.90;99.90
11043;DHT22;5574;48.786;10.120;2023-02-11T06:44:41;-0.80;99.90
11043;DHT22;5574;48.786;10.120;2023-02-11T06:47:09;-0.80;99.90
11043;DHT22;5574;48.786;10.120;2023-02-11T06:49:36;-0.80;99.90
11043;DHT22;5574;48.786;10.120;2023-02-11T06:52:03;-0.80;99.90
11043;DHT22;5574;48.786;10.120;2023-02-11T06:54:29;-0.70;99.90
11043;DHT22;5574;48.786;10.120;2023-02-11T06:56:56;-0.70;99.90
11043;DHT22;5574;48.786;10.120;2023-02-11T06:59:24;-0.70;99.90
11043;DHT22;5574;48.786;10.120;2023-02-11T07:01:51;-0.70;99.90
11043;DHT22;5574;48.786;10.120;2023-02-11T07:04:17;-0.70;99.90
11043;DHT22;5574;48.786;10.120;2023-02-11T07:06:44;-0.60;99.90
11043;DHT22;5574;48.786;10.120;2023-02-11T07:09:10;-0.60;99.90
11043;DHT22;5574;48.786;10.120;2023-02-11T07:11:37;-0.60;99.90
11043;DHT22;5574;48.786;10.120;2023-02-11T07:14:06;-0.50;99.90
11043;DHT22;5574;48.786;10.120;2023-02-11T07:16:35;-0.50;99.90
11043;DHT22;5574;48.786;10.120;2023-02-11T07:19:02;-0.40;99.90
11043;DHT22;5574;48.786;10.120;2023-02-11T07:21:29;-0.40;99.90
11043;DHT22;5574;48.786;10.120;2023-02-11T07:23:55;-0.40;99.90
11043;DHT22;5574;48.786;10.120;2023-02-11T07:26:23;-0.40;99.90
11043;DHT22;5574;48.786;10.120;2023-02-11T07:28:50;0.60;99.90
11043;DHT22;5574;48.786;10.120;2023-02-11T07:31:19;2.00;99.90
11043;DHT22;5574;48.786;10.120;2023-02-11T07:33:48;2.00;99.20
11043;DHT22;5574;48.786;10.120;2023-02-11T07:36:15;1.70;99.80
11043;DHT22;5574;48.786;10.120;2023-02-11T07:38:42;1.50;99.90
11043;DHT22;5574;48.786;10.120;2023-02-11T07:41:11;1.20;99.90
11043;DHT22;5574;48.786;10.120;2023-02-11T07:43:38;1.10;99.90
11043;DHT22;5574;48.786;10.120;2023-02-11T07:46:07;0.90;99.90
11043;DHT22;5574;48.786;10.120;2023-02-11T07:48:34;0.70;99.90
11043;DHT22;5574;48.786;10.120;2023-02-11T07:51:07;0.60;99.90
11043;DHT22;5574;48.786;10.120;2023-02-11T07:53:34;0.60;99.90
11043;DHT22;5574;48.786;10.120;2023-02-11T07:56:02;0.60;99.90
11043;DHT22;5574;48.786;10.120;2023-02-11T07:58:29;0.60;99.90
11043;DHT22;5574;48.786;10.120;2023-02-11T08:01:00;0.50;99.90
11043;DHT22;5574;48.786;10.120;2023-02-11T08:03:27;0.50;99.90
11043;DHT22;5574;48.786;10.120;2023-02-11T08:05:53;0.50;99.90
11043;DHT22;5574;48.786;10.120;2023-02-11T08:08:22;0.50;99.90
11043;DHT22;5574;48.786;10.120;2023-02-11T08:10:48;0.40;99.90
11043;DHT22;5574;48.786;10.120;2023-02-11T08:13:15;0.50;99.90
11043;DHT22;5574;48.786;10.120;2023-02-11T08:15:42;0.50;99.90
11043;DHT22;5574;48.786;10.120;2023-02-11T08:18:08;0.60;99.90
11043;DHT22;5574;48.786;10.120;2023-02-11T08:20:35;0.60;99.90
11043;DHT22;5574;48.786;10.120;2023-02-11T08:23:02;0.70;99.90
11043;DHT22;5574;48.786;10.120;2023-02-11T08:25:32;0.70;99.90
11043;DHT22;5574;48.786;10.120;2023-02-11T08:27:58;0.70;99.90
11043;DHT22;5574;48.786;10.120;2023-02-11T08:30:25;0.70;99.90
11043;DHT22;5574;48.786;10.120;2023-02-11T08:32:52;0.80;99.90
11043;DHT22;5574;48.786;10.120;2023-02-11T08:35:19;0.90;99.90
11043;DHT22;5574;48.786;10.120;2023-02-11T08:37:45;1.00;99.90
11043;DHT22;5574;48.786;10.120;2023-02-11T08:40:12;1.00;99.90
11043;DHT22;5574;48.786;10.120;2023-02-11T08:42:40;1.10;99.90
11043;DHT22;5574;48.786;10.120;2023-02-11T08:45:07;1.20;99.90
11043;DHT22;5574;48.786;10.120;2023-02-11T08:47:35;1.30;99.90
11043;DHT22;5574;48.786;10.120;2023-02-11T08:50:02;1.40;99.90
11043;DHT22;5574;48.786;10.120;2023-02-11T08:52:29;1.50;99.90
11043;DHT22;5574;48.786;10.120;2023-02-11T08:54:56;1.60;99.90
11043;DHT22;5574;48.786;10.120;2023-02-11T08:57:23;1.60;99.90
11043;DHT22;5574;48.786;10.120;2023-02-11T08:59:51;1.60;99.90
11043;DHT22;5574;48.786;10.120;2023-02-11T09:02:17;1.70;99.90
11043;DHT22;5574;48.786;10.120;2023-02-11T09:04:44;1.80;99.90
11043;DHT22;5574;48.786;10.120;2023-02-11T09:07:11;1.90;99.90
11043;DHT22;5574;48.786;10.120;2023-02-11T09:09:38;1.90;99.90
11043;DHT22;5574;48.786;10.120;2023-02-11T09:12:05;2.00;99.90
11043;DHT22;5574;48.786;10.120;2023-02-11T09:14:31;2.10;99.90
11043;DHT22;5574;48.786;10.120;2023-02-11T09:16:59;2.10;99.90
11043;DHT22;5574;48.786;10.120;2023-02-11T09:19:26;2.10;99.90
11043;DHT22;5574;48.786;10.120;2023-02-11T09:21:53;2.10;99.90
11043;DHT22;5574;48.786;10.120;2023-02-11T09:24:19;2.30;99.90
11043;DHT22;5574;48.786;10.120;2023-02-11T09:26:46;2.60;99.90
11043;DHT22;5574;48.786;10.120;2023-02-11T09:29:13;2.80;99.90
11043;DHT22;5574;48.786;10.120;2023-02-11T09:31:40;2.90;99.90
11043;DHT22;5574;48.786;10.120;2023-02-11T09:34:09;3.00;99.90
11043;DHT22;5574;48.786;10.120;2023-02-11T09:36:38;3.00;99.90
11043;DHT22;5574;48.786;10.120;2023-02-11T09:39:08;3.00;99.90
11043;DHT22;5574;48.786;10.120;2023-02-11T09:44:37;3.10;99.90
11043;DHT22;5574;48.786;10.120;2023-02-11T09:47:06;3.10;99.90
11043;DHT22;5574;48.786;10.120;2023-02-11T09:49:43;3.10;99.90
11043;DHT22;5574;48.786;10.120;2023-02-11T09:52:28;3.20;99.90
11043;DHT22;5574;48.786;10.120;2023-02-11T09:54:57;3.30;99.90
11043;DHT22;5574;48.786;10.120;2023-02-11T09:57:27;3.30;99.90
11043;DHT22;5574;48.786;10.120;2023-02-11T09:59:55;3.40;99.90
11043;DHT22;5574;48.786;10.120;2023-02-11T10:02:26;3.60;99.90
11043;DHT22;5574;48.786;10.120;2023-02-11T10:05:12;3.80;99.90
11043;DHT22;5574;48.786;10.120;2023-02-11T10:07:47;3.90;99.90
11043;DHT22;5574;48.786;10.120;2023-02-11T10:10:26;4.40;99.90
11043;DHT22;5574;48.786;10.120;2023-02-11T10:13:15;4.70;99.90
11043;DHT22;5574;48.786;10.120;2023-02-11T10:15:53;4.70;99.90
11043;DHT22;5574;48.786;10.120;2023-02-11T10:18:35;4.70;99.90
11043;DHT22;5574;48.786;10.120;2023-02-11T10:21:12;4.70;99.90
11043;DHT22;5574;48.786;10.120;2023-02-11T10:23:44;4.80;99.90
11043;DHT22;5574;48.786;10.120;2023-02-11T10:26:15;4.80;99.90
11043;DHT22;5574;48.786;10.120;2023-02-11T10:28:44;4.80;99.90
11043;DHT22;5574;48.786;10.120;2023-02-11T10:31:15;4.80;99.90
11043;DHT22;5574;48.786;10.120;2023-02-11T10:33:46;4.80;99.90
11043;DHT22;5574;48.786;10.120;2023-02-11T10:36:17;4.90;99.90
11043;DHT22;5574;48.786;10.120;2023-02-11T10:38:44;4.90;99.90
11043;DHT22;5574;48.786;10.120;2023-02-11T10:41:15;5.00;99.90
11043;DHT22;5574;48.786;10.120;2023-02-11T10:43:42;5.30;99.90
11043;DHT22;5574;48.786;10.120;2023-02-11T10:46:16;5.70;99.90
11043;DHT22;5574;48.786;10.120;2023-02-11T10:48:45;6.20;99.90
11043;DHT22;5574;48.786;10.120;2023-02-11T10:51:21;6.60;99.90
11043;DHT22;5574;48.786;10.120;2023-02-11T10:53:49;7.10;99.90
11043;DHT22;5574;48.786;10.120;2023-02-11T10:56:23;7.60;99.90
11043;DHT22;5574;48.786;10.120;2023-02-11T10:58:58;8.00;99.10
11043;DHT22;5574;48.786;10.120;2023-02-11T11:01:44;8.40;98.40
11043;DHT22;5574;48.786;10.120;2023-02-11T11:04:33;8.80;98.30
11043;DHT22;5574;48.786;10.120;2023-02-11T11:07:27;9.10;96.90
11043;DHT22;5574;48.786;10.120;2023-02-11T11:09:55;9.50;97.20
11043;DHT22;5574;48.786;10.120;2023-02-11T11:12:27;9.60;96.50
11043;DHT22;5574;48.786;10.120;2023-02-11T11:14:56;9.90;95.90
11043;DHT22;5574;48.786;10.120;2023-02-11T11:17:23;10.00;95.00
11043;DHT22;5574;48.786;10.120;2023-02-11T11:19:53;10.20;94.90
11043;DHT22;5574;48.786;10.120;2023-02-11T11:22:22;10.40;94.90
11043;DHT22;5574;48.786;10.120;2023-02-11T11:24:50;10.40;94.50
11043;DHT22;5574;48.786;10.120;2023-02-11T11:27:22;10.50;94.30
11043;DHT22;5574;48.786;10.120;2023-02-11T11:29:51;10.50;94.00
11043;DHT22;5574;48.786;10.120;2023-02-11T11:32:21;10.20;93.50
11043;DHT22;5574;48.786;10.120;2023-02-11T11:34:50;10.10;93.80
11043;DHT22;5574;48.786;10.120;2023-02-11T11:37:23;10.30;94.30
11043;DHT22;5574;48.786;10.120;2023-02-11T11:39:56;10.30;94.10
11043;DHT22;5574;48.786;10.120;2023-02-11T11:42:26;10.40;94.20
11043;DHT22;5574;48.786;10.120;2023-02-11T11:44:57;10.60;93.40
11043;DHT22;5574;48.786;10.120;2023-02-11T11:47:28;10.70;93.20
11043;DHT22;5574;48.786;10.120;2023-02-11T11:50:12;10.80;92.60
11043;DHT22;5574;48.786;10.120;2023-02-11T11:52:44;10.90;92.60
11043;DHT22;5574;48.786;10.120;2023-02-11T11:55:17;10.90;92.50
11043;DHT22;5574;48.786;10.120;2023-02-11T11:57:46;10.90;92.50
11043;DHT22;5574;48.786;10.120;2023-02-11T12:00:15;10.80;92.10
11043;DHT22;5574;48.786;10.120;2023-02-11T12:03:11;10.60;92.80
11043;DHT22;5574;48.786;10.120;2023-02-11T12:05:48;10.20;92.80
11043;DHT22;5574;48.786;10.120;2023-02-11T12:08:22;9.80;94.30
11043;DHT22;5574;48.786;10.120;2023-02-11T12:11:01;9.60;94.60
11043;DHT22;5574;48.786;10.120;2023-02-11T12:13:42;9.50;94.50
11043;DHT22;5574;48.786;10.120;2023-02-11T12:16:19;9.40;94.70
11043;DHT22;5574;48.786;10.120;2023-02-11T12:21:55;9.00;94.90
11043;DHT22;5574;48.786;10.120;2023-02-11T12:24:34;8.90;95.40
11043;DHT22;5574;48.786;10.120;2023-02-11T12:27:13;8.70;95.70
11043;DHT22;5574;48.786;10.120;2023-02-11T12:29:59;8.60;95.80
11043;DHT22;5574;48.786;10.120;2023-02-11T12:32:34;8.50;96.10
11043;DHT22;5574;48.786;10.120;2023-02-11T12:35:24;8.40;96.10
11043;DHT22;5574;48.786;10.120;2023-02-11T12:41:21;8.30;96.50
11043;DHT22;5574;48.786;10.120;2023-02-11T12:44:20;8.30;96.70
11043;DHT22;5574;48.786;10.120;2023-02-11T12:46:57;8.40;97.00
11043;DHT22;5574;48.786;10.120;2023-02-11T12:52:37;8.50;96.50
11043;DHT22;5574;48.786;10.120;2023-02-11T12:55:13;8.50;96.60
11043;DHT22;5574;48.786;10.120;2023-02-11T12:57:43;8.40;96.40
11043;DHT22;5574;48.786;10.120;2023-02-11T13:00:16;8.50;97.00
11043;DHT22;5574;48.786;10.120;2023-02-11T13:02:48;8.60;97.10
11043;DHT22;5574;48.786;10.120;2023-02-11T13:05:24;8.80;97.00
11043;DHT22;5574;48.786;10.120;2023-02-11T13:07:53;8.60;96.60
11043;DHT22;5574;48.786;10.120;2023-02-11T13:10:28;8.40;97.00
11043;DHT22;5574;48.786;10.120;2023-02-11T13:12:56;8.30;97.00
11043;DHT22;5574;48.786;10.120;2023-02-11T13:15:47;8.20;97.10
11043;DHT22;5574;48.786;10.120;2023-02-11T13:18:29;8.00;97.40
11043;DHT22;5574;48.786;10.120;2023-02-11T13:21:04;7.90;97.60
11043;DHT22;5574;48.786;10.120;2023-02-11T13:23:38;7.90;98.00
11043;DHT22;5574;48.786;10.120;2023-02-11T13:26:11;7.90;98.30
11043;DHT22;5574;48.786;10.120;2023-02-11T13:28:44;7.90;98.80
11043;DHT22;5574;48.786;10.120;2023-02-11T13:31:15;8.00;98.60
11043;DHT22;5574;48.786;10.120;2023-02-11T13:33:45;8.00;98.90
11043;DHT22;5574;48.786;10.120;2023-02-11T13:36:23;8.00;98.50
11043;DHT22;5574;48.786;10.120;2023-02-11T13:38:59;8.00;98.50
11043;DHT22;5574;48.786;10.120;2023-02-11T13:41:33;8.00;98.60
11043;DHT22;5574;48.786;10.120;2023-02-11T13:44:13;8.00;98.80
11043;DHT22;5574;48.786;10.120;2023-02-11T13:46:59;7.90;98.80
11043;DHT22;5574;48.786;10.120;2023-02-11T13:49:30;7.90;99.10
11043;DHT22;5574;48.786;10.120;2023-02-11T13:51:59;7.80;99.10
11043;DHT22;5574;48.786;10.120;2023-02-11T13:54:31;7.80;99.60
11043;DHT22;5574;48.786;10.120;2023-02-11T13:57:21;7.70;99.60
11043;DHT22;5574;48.786;10.120;2023-02-11T13:59:50;7.80;99.50
11043;DHT22;5574;48.786;10.120;2023-02-11T14:02:25;7.80;99.70
11043;DHT22;5574;48.786;10.120;2023-02-11T14:05:24;7.80;99.50
11043;DHT22;5574;48.786;10.120;2023-02-11T14:08:23;7.80;99.80
11043;DHT22;5574;48.786;10.120;2023-02-11T14:11:42;7.90;99.90
11043;DHT22;5574;48.786;10.120;2023-02-11T14:14:23;7.90;99.90
11043;DHT22;5574;48.786;10.120;2023-02-11T14:17:27;7.90;99.90
11043;DHT22;5574;48.786;10.120;2023-02-11T14:19:55;7.80;99.80
11043;DHT22;5574;48.786;10.120;2023-02-11T14:22:25;7.80;99.90
11043;DHT22;5574;48.786;10.120;2023-02-11T14:24:55;7.70;99.90
11043;DHT22;5574;48.786;10.120;2023-02-11T14:27:40;7.70;99.90
11043;DHT22;5574;48.786;10.120;2023-02-11T14:30:24;7.60;99.90
11043;DHT22;5574;48.786;10.120;2023-02-11T14:33:06;7.50;99.90
11043;DHT22;5574;48.786;10.120;2023-02-11T14:35:39;7.40;99.90
11043;DHT22;5574;48.786;10.120;2023-02-11T14:38:17;7.40;99.90
11043;DHT22;5574;48.786;10.120;2023-02-11T14:40:51;7.40;99.90
11043;DHT22;5574;48.786;10.120;2023-02-11T14:43:24;7.30;99.90
11043;DHT22;5574;48.786;10.120;2023-02-11T14:45:53;7.30;99.90
11043;DHT22;5574;48.786;10.120;2023-02-11T14:48:27;7.20;99.90
11043;DHT22;5574;48.786;10.120;2023-02-11T14:50:59;7.20;99.90
11043;DHT22;5574;48.786;10.120;2023-02-11T14:53:27;7.20;99.90
11043;DHT22;5574;48.786;10.120;2023-02-11T14:55:55;7.10;99.90
11043;DHT22;5574;48.786;10.120;2023-02-11T14:58:23;7.10;99.90
11043;DHT22;5574;48.786;10.120;2023-02-11T15:00:55;7.10;99.90
11043;DHT22;5574;48.786;10.120;2023-02-11T15:03:26;7.00;99.90
11043;DHT22;5574;48.786;10.120;2023-02-11T15:05:55;7.00;99.90
11043;DHT22;5574;48.786;10.120;2023-02-11T15:08:22;7.00;99.90
11043;DHT22;5574;48.786;10.120;2023-02-11T15:10:49;7.00;99.90
11043;DHT22;5574;48.786;10.120;2023-02-11T15:13:18;6.90;99.90
11043;DHT22;5574;48.786;10.120;2023-02-11T15:15:46;6.90;99.90
11043;DHT22;5574;48.786;10.120;2023-02-11T15:18:18;6.90;99.90
11043;DHT22;5574;48.786;10.120;2023-02-11T15:20:49;6.90;99.90
11043;DHT22;5574;48.786;10.120;2023-02-11T15:23:22;6.90;99.90
11043;DHT22;5574;48.786;10.120;2023-02-11T15:25:50;7.00;99.90
11043;DHT22;5574;48.786;10.120;2023-02-11T15:28:23;7.00;99.90
11043;DHT22;5574;48.786;10.120;2023-02-11T15:30:56;6.90;99.90
11043;DHT22;5574;48.786;10.120;2023-02-11T15:33:24;6.90;99.90
11043;DHT22;5574;48.786;10.120;2023-02-11T15:35:56;6.90;99.90
11043;DHT22;5574;48.786;10.120;2023-02-11T15:38:23;6.90;99.90
11043;DHT22;5574;48.786;10.120;2023-02-11T15:40:53;6.90;99.90
11043;DHT22;5574;48.786;10.120;2023-02-11T15:43:20;6.90;99.90
11043;DHT22;5574;48.786;10.120;2023-02-11T15:45:59;6.90;99.90
11043;DHT22;5574;48.786;10.120;2023-02-11T15:48:33;6.90;99.90
11043;DHT22;5574;48.786;10.120;2023-02-11T15:51:06;6.90;99.90
11043;DHT22;5574;48.786;10.120;2023-02-11T15:53:37;6.90;99.90
11043;DHT22;5574;48.786;10.120;2023-02-11T15:56:10;6.90;99.90
11043;DHT22;5574;48.786;10.120;2023-02-11T15:58:42;6.90;99.90
11043;DHT22;5574;48.786;10.120;2023-02-11T16:01:10;6.80;99.90
11043;DHT22;5574;48.786;10.120;2023-02-11T16:03:37;6.80;99.90
11043;DHT22;5574;48.786;10.120;2023-02-11T16:06:17;6.80;99.90
11043;DHT22;5574;48.786;10.120;2023-02-11T16:08:57;6.70;99.90
11043;DHT22;5574;48.786;10.120;2023-02-11T16:11:26;6.70;99.90
11043;DHT22;5574;48.786;10.120;2023-02-11T16:13:54;6.70;99.90
11043;DHT22;5574;48.786;10.120;2023-02-11T16:16:22;6.60;99.90
11043;DHT22;5574;48.786;10.120;2023-02-11T16:18:50;6.60;99.90
11043;DHT22;5574;48.786;10.120;2023-02-11T16:21:19;6.60;99.90